Tropical Cyclones
[Index]
Main Index Home Page Stock Weather Photos Extreme Storms Discussion Storm News and Storm Chasing Reports Tropical Cyclones / Hurricanes / Typhoons Weather Data and Links Wild Fires / Bushfires Weather Observation Techniques Weather Picture Catalogue Tornado Pictures and Reports Stock Video Footage and DVDs for sale
Season 1988-1989 Tropical Cyclone LEON Track Map
Season 1988-1989 Summaries: [BoM-AU] [JTWC-AU] [JTWC-SIO] [JTWC-SPAC] [JTWC-SH]
<<- Previous TC | BoM 1988-1989 Season | Next TC ->>

click for intensity scale information  Lat/long Grid: Show Hide

 Date Labels: Show Hide

Bureau of Meteorology Tropical Cyclone Data

Name: LEON
Number: 711 / 198889_05

13 Feb 1989 06:00 UTC to 19 Feb 1989 12:00 UTC

    date/time    lat    long    hPa   cat  kts
1989-02-13 06   12.0   102.0   1008                     
1989-02-13 12   12.2   101.1   1006                     
1989-02-13 18   12.4   100.2   1006                     
1989-02-14 00   12.4    99.5   1006                     
1989-02-14 06   12.0    99.7   1006                     
1989-02-14 12   12.0   100.2   1006                     
1989-02-14 18   12.2   100.8   1006                     
1989-02-15 00   12.6   101.0   1006                     
1989-02-15 06   12.7   100.8   1006                     
1989-02-15 12   12.8   100.6   1006                     
1989-02-15 18   12.8   100.3   1006                     
1989-02-16 00   12.8   100.1   1006                     
1989-02-16 06   12.9    99.6   1004                     
1989-02-16 12   13.0    99.1   1004                     
1989-02-16 18   13.0    98.5   1004                     
1989-02-17 00   13.0    98.0   1004                     
1989-02-17 06   13.0    97.5   1002         21          
1989-02-17 12   13.0    97.1   1000         25          
1989-02-17 18   13.0    96.4    999         27          
1989-02-18 00   13.0    95.6    997         31          
1989-02-18 06   13.0    95.0    995    1    35          
1989-02-18 12   12.9    93.8    993    1    37          
1989-02-18 18   12.8    92.7    992    1    27          
1989-02-19 00   12.7    91.5    990    1    41          
1989-02-19 06   12.7    90.4    989    1    43          
1989-02-19 12   12.8    89.0    988    1    43          
Winds are 10-min average.

Tropical cyclone tracks developed by Michael Bath using data from the Bureau of Meteorology and Google Maps.


[Australian Severe Weather index] [Copyright Notice] [Email Contacts] [Search This Site] [Privacy Policy]
Document: tropical_cyclone_leon.htm Updated: 30 May 2013